Time;durP1;ratioP1;P1;durP2;ratioP2;P2;SDS_P1;SDS_P2;PMS_P1;PMS_P2;Temp;Humidity;BMP_temperature;BMP_pressure;BME280_temperature;BME280_humidity;BME280_pressure;Samples;Min_cycle;Max_cycle;Signal;HPM_P1;HPM_P2
2022/08/29 00:00:37;;;;;;;9.93;1.80;;;;;;;;;;5070284;28;20020;-65
2022/08/29 00:03:03;;;;;;;5.68;1.70;;;;;;;;;;5070341;28;20941;-64
2022/08/29 00:05:30;;;;;;;7.28;1.75;;;;;;;;;;5072274;28;20551;-65
2022/08/29 00:07:57;;;;;;;7.40;1.70;;;;;;;;;;5056252;28;20029;-65
2022/08/29 00:10:22;;;;;;;6.00;2.03;;;;;;;;;;5074315;28;20044;-65
2022/08/29 00:12:47;;;;;;;6.18;1.63;;;;;;;;;;5074254;28;20110;-65
2022/08/29 00:15:13;;;;;;;10.80;1.73;;;;;;;;;;5073820;28;20021;-65
2022/08/29 00:17:38;;;;;;;10.48;2.08;;;;;;;;;;5074213;28;20465;-65
2022/08/29 00:20:04;;;;;;;4.87;1.30;;;;;;;;;;5074044;28;20013;-66
2022/08/29 00:22:30;;;;;;;7.38;1.75;;;;;;;;;;5074379;28;20325;-66
2022/08/29 00:24:55;;;;;;;7.50;1.50;;;;;;;;;;5074252;28;20396;-65
2022/08/29 00:27:20;;;;;;;13.07;2.57;;;;;;;;;;5073876;28;20321;-66
2022/08/29 00:29:46;;;;;;;6.23;1.80;;;;;;;;;;5074013;28;20269;-65
2022/08/29 00:32:11;;;;;;;9.50;2.35;;;;;;;;;;5073811;28;20312;-65
2022/08/29 00:34:36;;;;;;;10.23;2.85;;;;;;;;;;5073794;28;20024;-66
2022/08/29 00:37:01;;;;;;;4.53;1.43;;;;;;;;;;5073423;28;20020;-64
2022/08/29 00:39:27;;;;;;;4.43;1.60;;;;;;;;;;5073901;28;20815;-66
2022/08/29 00:41:52;;;;;;;6.93;2.13;;;;;;;;;;5073771;28;20047;-65
2022/08/29 00:44:17;;;;;;;12.70;2.10;;;;;;;;;;5073487;28;20073;-65
2022/08/29 00:46:48;;;;;;;3.45;1.95;;;;;;;;;;5073289;28;20045;-65
2022/08/29 00:49:16;;;;;;;5.68;1.73;;;;;;;;;;5073346;28;20025;-65
2022/08/29 00:51:42;;;;;;;12.80;1.67;;;;;;;;;;5073567;28;20021;-65
2022/08/29 00:54:08;;;;;;;8.93;1.98;;;;;;;;;;5073406;28;20019;-65
2022/08/29 00:56:35;;;;;;;5.03;1.80;;;;;;;;;;5089626;22;20047;-90
2022/08/29 00:59:30;;;;;;;8.20;2.45;;;;;;;;;;5062156;28;20082;-89
2022/08/29 01:01:55;;;;;;;8.40;2.03;;;;;;;;;;5055426;28;20116;-90
2022/08/29 01:04:21;;;;;;;8.02;2.00;;;;;;;;;;5072139;28;20704;-89
2022/08/29 01:06:46;;;;;;;5.88;2.13;;;;;;;;;;5072159;28;20442;-89
2022/08/29 01:09:12;;;;;;;8.00;1.90;;;;;;;;;;5072337;28;20065;-90
2022/08/29 01:14:23;;;;;;;8.65;1.83;;;;;;;;;;5074306;28;20031;-90
2022/08/29 01:16:53;;;;;;;7.82;2.28;;;;;;;;;;5072154;28;20020;-89
2022/08/29 01:19:41;;;;;;;7.78;2.22;;;;;;;;;;5072331;28;20166;-89
2022/08/29 01:22:15;;;;;;;8.80;2.00;;;;;;;;;;5032093;28;20020;-89
2022/08/29 01:24:44;;;;;;;5.47;1.42;;;;;;;;;;5070829;28;20024;-90
2022/08/29 01:27:11;;;;;;;5.85;1.50;;;;;;;;;;5070429;28;20052;-89
2022/08/29 01:29:36;;;;;;;5.88;1.70;;;;;;;;;;5070965;28;20103;-89
2022/08/29 01:32:01;;;;;;;8.95;2.05;;;;;;;;;;5071602;28;20044;-91
2022/08/29 01:34:28;;;;;;;8.95;1.92;;;;;;;;;;5070833;28;20024;-90
2022/08/29 01:36:57;;;;;;;8.40;2.00;;;;;;;;;;5070899;28;20435;-90
2022/08/29 01:39:25;;;;;;;10.43;2.05;;;;;;;;;;5072194;28;20477;-89
2022/08/29 01:41:51;;;;;;;10.45;2.30;;;;;;;;;;5070989;28;20082;-89
2022/08/29 01:44:18;;;;;;;4.95;2.42;;;;;;;;;;5071410;28;20016;-90
2022/08/29 01:46:44;;;;;;;5.38;2.15;;;;;;;;;;5069492;28;20399;-90
2022/08/29 01:49:10;;;;;;;7.28;1.95;;;;;;;;;;5071186;28;20048;-89
2022/08/29 01:51:36;;;;;;;4.38;1.80;;;;;;;;;;5071450;28;20496;-90
2022/08/29 01:54:01;;;;;;;8.00;1.58;;;;;;;;;;5071944;28;20073;-89
2022/08/29 01:56:29;;;;;;;6.95;2.35;;;;;;;;;;5070432;28;20115;-90
2022/08/29 01:58:56;;;;;;;9.63;1.90;;;;;;;;;;5070764;28;20052;-90
2022/08/29 02:01:24;;;;;;;6.35;1.95;;;;;;;;;;5072567;28;20047;-90
2022/08/29 02:03:49;;;;;;;4.40;1.98;;;;;;;;;;5072304;28;20531;-89
2022/08/29 02:06:15;;;;;;;7.18;2.28;;;;;;;;;;5070523;28;20020;-90
2022/08/29 02:08:41;;;;;;;5.60;2.05;;;;;;;;;;5071937;28;20506;-89
2022/08/29 02:11:09;;;;;;;6.53;2.13;;;;;;;;;;5074679;28;20008;-90
2022/08/29 02:13:46;;;;;;;9.65;2.10;;;;;;;;;;5080317;28;20017;-89
2022/08/29 02:16:12;;;;;;;9.73;2.22;;;;;;;;;;5079675;28;20809;-89
2022/08/29 02:18:38;;;;;;;4.07;1.75;;;;;;;;;;5074910;28;20027;-89
2022/08/29 02:21:07;;;;;;;6.28;1.80;;;;;;;;;;5071560;28;20017;-89
2022/08/29 02:23:34;;;;;;;6.85;2.17;;;;;;;;;;5071050;28;20028;-89
2022/08/29 02:25:59;;;;;;;4.15;2.05;;;;;;;;;;5073067;28;20435;-90
2022/08/29 02:28:24;;;;;;;9.68;2.20;;;;;;;;;;5080037;28;20016;-90
2022/08/29 02:30:52;;;;;;;8.30;3.05;;;;;;;;;;5094264;28;20084;-90
2022/08/29 02:33:17;;;;;;;6.07;1.98;;;;;;;;;;5094410;28;20020;-90
2022/08/29 02:35:43;;;;;;;6.30;2.03;;;;;;;;;;5093497;28;20013;-90
2022/08/29 02:38:09;;;;;;;4.68;1.95;;;;;;;;;;5093972;28;20027;-90
2022/08/29 02:40:34;;;;;;;6.32;2.28;;;;;;;;;;5090754;28;20013;-88
2022/08/29 02:43:00;;;;;;;5.55;2.38;;;;;;;;;;5089687;28;20012;-91
2022/08/29 02:45:25;;;;;;;6.68;2.22;;;;;;;;;;5081066;28;20492;-90
2022/08/29 02:47:51;;;;;;;7.97;2.08;;;;;;;;;;5075495;28;20654;-89
2022/08/29 02:50:16;;;;;;;8.15;2.47;;;;;;;;;;5069912;28;20032;-90
2022/08/29 02:52:42;;;;;;;7.22;2.40;;;;;;;;;;5071270;28;20059;-90
2022/08/29 02:55:10;;;;;;;8.50;2.40;;;;;;;;;;5070540;28;20472;-90
2022/08/29 02:57:35;;;;;;;8.93;2.35;;;;;;;;;;5069920;28;20078;-89
2022/08/29 03:00:00;;;;;;;5.93;1.90;;;;;;;;;;5069533;28;20028;-90
2022/08/29 03:02:26;;;;;;;7.25;1.92;;;;;;;;;;5069508;28;20016;-89
2022/08/29 03:04:52;;;;;;;7.15;2.20;;;;;;;;;;5069194;28;20024;-89
2022/08/29 03:07:20;;;;;;;8.25;2.40;;;;;;;;;;5069083;28;20036;-89
2022/08/29 03:09:45;;;;;;;7.13;2.25;;;;;;;;;;5069754;28;20013;-89
2022/08/29 03:12:11;;;;;;;8.65;2.05;;;;;;;;;;5070278;28;20031;-90
2022/08/29 03:14:36;;;;;;;13.02;2.95;;;;;;;;;;5068717;28;20539;-90
2022/08/29 03:17:01;;;;;;;5.78;2.00;;;;;;;;;;5070073;28;20088;-89
2022/08/29 03:19:26;;;;;;;6.22;2.17;;;;;;;;;;5072300;28;20365;-89
2022/08/29 03:21:52;;;;;;;10.60;2.40;;;;;;;;;;5074615;28;20028;-88
2022/08/29 03:24:23;;;;;;;6.50;2.28;;;;;;;;;;5072412;28;20023;-90
2022/08/29 03:26:48;;;;;;;6.22;2.05;;;;;;;;;;5070978;28;20020;-89
2022/08/29 03:29:14;;;;;;;10.00;2.53;;;;;;;;;;5072176;28;20023;-89
2022/08/29 03:31:39;;;;;;;8.02;2.33;;;;;;;;;;5071599;28;20017;-90
2022/08/29 03:34:07;;;;;;;9.93;2.78;;;;;;;;;;5071927;28;20111;-90
2022/08/29 03:36:33;;;;;;;5.80;2.17;;;;;;;;;;5071887;28;20069;-90
2022/08/29 03:38:58;;;;;;;7.78;2.03;;;;;;;;;;5070552;28;20151;-88
2022/08/29 03:41:25;;;;;;;9.02;2.55;;;;;;;;;;5071829;28;20556;-88
2022/08/29 03:43:54;;;;;;;9.18;2.42;;;;;;;;;;5071363;28;20013;-88
2022/08/29 03:46:19;;;;;;;6.70;2.45;;;;;;;;;;5069635;28;20024;-89
2022/08/29 03:48:44;;;;;;;7.47;2.40;;;;;;;;;;5068499;28;20503;-89
2022/08/29 03:51:10;;;;;;;6.60;2.72;;;;;;;;;;5068967;28;20028;-89
2022/08/29 03:53:35;;;;;;;3.60;1.80;;;;;;;;;;5082689;22;20469;-66
2022/08/29 03:56:01;;;;;;;7.60;2.67;;;;;;;;;;5088765;28;20429;-66
2022/08/29 03:58:26;;;;;;;12.50;2.65;;;;;;;;;;5090108;28;20259;-66
2022/08/29 04:00:52;;;;;;;10.60;2.47;;;;;;;;;;5090578;28;20449;-66
2022/08/29 04:03:18;;;;;;;6.23;2.13;;;;;;;;;;5090496;28;20513;-67
2022/08/29 04:05:43;;;;;;;10.10;2.72;;;;;;;;;;5071752;28;20738;-66
2022/08/29 04:08:09;;;;;;;9.07;2.20;;;;;;;;;;5090342;28;20085;-66
2022/08/29 04:10:38;;;;;;;10.30;2.65;;;;;;;;;;5089947;28;20286;-66
2022/08/29 04:13:04;;;;;;;8.35;3.20;;;;;;;;;;5090665;28;20042;-66
2022/08/29 04:15:31;;;;;;;7.53;2.28;;;;;;;;;;5089912;28;20100;-66
2022/08/29 04:17:58;;;;;;;6.80;2.10;;;;;;;;;;5090596;28;20024;-66
2022/08/29 04:20:25;;;;;;;5.88;2.30;;;;;;;;;;5090240;28;20449;-66
2022/08/29 04:22:51;;;;;;;13.15;2.75;;;;;;;;;;5090272;28;20099;-66
2022/08/29 04:25:17;;;;;;;5.03;2.05;;;;;;;;;;5089806;28;20086;-67
2022/08/29 04:27:42;;;;;;;10.45;2.38;;;;;;;;;;5089885;28;20059;-66
2022/08/29 04:30:10;;;;;;;9.77;2.55;;;;;;;;;;5090103;28;20012;-66
2022/08/29 04:32:35;;;;;;;10.55;2.53;;;;;;;;;;5089922;28;20101;-66
2022/08/29 04:35:00;;;;;;;9.10;3.08;;;;;;;;;;5089854;28;20337;-66
2022/08/29 04:37:26;;;;;;;7.10;2.30;;;;;;;;;;5089625;28;20407;-66
2022/08/29 04:39:51;;;;;;;13.05;2.45;;;;;;;;;;5089949;28;20024;-66
2022/08/29 04:42:17;;;;;;;10.13;2.67;;;;;;;;;;5089802;28;20290;-66
2022/08/29 04:44:42;;;;;;;7.80;2.60;;;;;;;;;;5090031;28;20028;-66
2022/08/29 04:47:07;;;;;;;7.22;2.65;;;;;;;;;;5089716;28;20499;-66
2022/08/29 04:49:32;;;;;;;10.77;2.70;;;;;;;;;;5089907;28;20027;-66
2022/08/29 04:51:58;;;;;;;5.03;2.47;;;;;;;;;;5092880;28;20333;-66
2022/08/29 04:54:23;;;;;;;8.23;2.63;;;;;;;;;;5093335;28;20305;-66
2022/08/29 04:56:48;;;;;;;11.50;2.35;;;;;;;;;;5093219;28;20250;-66
2022/08/29 04:59:14;;;;;;;7.97;3.20;;;;;;;;;;5093592;28;20020;-66
2022/08/29 05:01:40;;;;;;;8.32;2.40;;;;;;;;;;5093436;28;20024;-66
2022/08/29 05:04:05;;;;;;;9.25;3.53;;;;;;;;;;5093883;28;20422;-66
2022/08/29 05:06:30;;;;;;;10.47;2.67;;;;;;;;;;5092772;28;20046;-66
2022/08/29 05:08:55;;;;;;;8.33;2.47;;;;;;;;;;5093378;28;20266;-66
2022/08/29 05:11:20;;;;;;;7.28;2.92;;;;;;;;;;5093020;28;20242;-66
2022/08/29 05:13:47;;;;;;;10.82;3.38;;;;;;;;;;5092946;28;20020;-66
2022/08/29 05:16:13;;;;;;;8.70;3.15;;;;;;;;;;5092879;28;20119;-66
2022/08/29 05:18:38;;;;;;;7.13;2.70;;;;;;;;;;5093224;28;20020;-66
2022/08/29 05:21:04;;;;;;;8.30;2.40;;;;;;;;;;5092887;28;20077;-66
2022/08/29 05:23:29;;;;;;;8.15;2.67;;;;;;;;;;5092595;28;20069;-67
2022/08/29 05:25:57;;;;;;;6.57;2.97;;;;;;;;;;5092443;28;20016;-66
2022/08/29 05:28:22;;;;;;;10.75;2.92;;;;;;;;;;5092833;28;20020;-66
2022/08/29 05:30:48;;;;;;;7.88;3.08;;;;;;;;;;5093010;28;20042;-67
2022/08/29 05:33:13;;;;;;;4.53;2.50;;;;;;;;;;5092519;28;20016;-67
2022/08/29 05:35:39;;;;;;;13.10;3.10;;;;;;;;;;5092199;28;20016;-67
2022/08/29 05:38:04;;;;;;;10.25;2.97;;;;;;;;;;5092703;28;20047;-67
2022/08/29 05:40:29;;;;;;;9.25;2.78;;;;;;;;;;5092611;28;20480;-67
2022/08/29 05:42:54;;;;;;;12.47;3.30;;;;;;;;;;5092565;28;20324;-67
2022/08/29 05:45:20;;;;;;;20.25;3.22;;;;;;;;;;5091555;28;20311;-67
2022/08/29 05:47:45;;;;;;;14.27;2.65;;;;;;;;;;5092647;28;20055;-68
2022/08/29 05:50:12;;;;;;;10.23;3.20;;;;;;;;;;5092464;28;20461;-67
2022/08/29 05:52:39;;;;;;;8.27;2.80;;;;;;;;;;5091652;28;20016;-67
2022/08/29 05:55:04;;;;;;;11.63;2.65;;;;;;;;;;5092058;28;20580;-67
2022/08/29 05:57:30;;;;;;;13.30;3.00;;;;;;;;;;5091570;28;20045;-67
2022/08/29 05:59:55;;;;;;;10.10;3.15;;;;;;;;;;5092511;28;20116;-67
2022/08/29 06:02:20;;;;;;;7.13;2.70;;;;;;;;;;5091094;28;20475;-67
2022/08/29 06:04:46;;;;;;;10.90;2.75;;;;;;;;;;5091878;28;20319;-67
2022/08/29 06:07:11;;;;;;;10.70;2.97;;;;;;;;;;5091898;28;20026;-67
2022/08/29 06:09:37;;;;;;;9.43;3.50;;;;;;;;;;5091658;28;20047;-67
2022/08/29 06:12:03;;;;;;;8.88;3.03;;;;;;;;;;5092199;28;20027;-67
2022/08/29 06:14:28;;;;;;;8.05;2.97;;;;;;;;;;5092114;28;20019;-68
2022/08/29 06:16:53;;;;;;;10.25;2.90;;;;;;;;;;5091691;28;20103;-67
2022/08/29 06:19:19;;;;;;;7.72;2.90;;;;;;;;;;5092105;28;20027;-67
2022/08/29 06:21:44;;;;;;;9.32;3.30;;;;;;;;;;5091473;28;20480;-67
2022/08/29 06:24:09;;;;;;;10.13;3.22;;;;;;;;;;5091816;28;20031;-67
2022/08/29 06:26:35;;;;;;;12.23;2.78;;;;;;;;;;5091615;28;20110;-67
2022/08/29 06:29:03;;;;;;;10.30;2.97;;;;;;;;;;5091563;28;20043;-68
2022/08/29 06:31:28;;;;;;;12.48;2.92;;;;;;;;;;5091779;28;20024;-67
2022/08/29 06:33:55;;;;;;;9.50;2.70;;;;;;;;;;5091721;28;20426;-67
2022/08/29 06:36:20;;;;;;;9.25;2.90;;;;;;;;;;5091332;28;20024;-67
2022/08/29 06:38:46;;;;;;;7.38;2.28;;;;;;;;;;5091656;28;20020;-67
2022/08/29 06:41:12;;;;;;;9.82;2.83;;;;;;;;;;5091390;28;20088;-68
2022/08/29 06:43:39;;;;;;;7.80;2.85;;;;;;;;;;5091247;28;20136;-67
2022/08/29 06:46:04;;;;;;;7.90;2.58;;;;;;;;;;5091050;28;20012;-67
2022/08/29 06:48:29;;;;;;;13.65;3.15;;;;;;;;;;5091152;28;20578;-67
2022/08/29 06:50:55;;;;;;;12.90;3.40;;;;;;;;;;5091375;28;20020;-68
2022/08/29 06:53:20;;;;;;;8.75;2.65;;;;;;;;;;5090744;28;20642;-67
2022/08/29 06:55:46;;;;;;;11.57;3.47;;;;;;;;;;5090847;28;20026;-68
2022/08/29 06:58:11;;;;;;;14.80;2.83;;;;;;;;;;5091473;28;20073;-68
2022/08/29 07:00:39;;;;;;;9.77;2.70;;;;;;;;;;5090888;28;20319;-67
2022/08/29 07:03:04;;;;;;;9.55;2.47;;;;;;;;;;5091074;28;20125;-67
2022/08/29 07:05:29;;;;;;;8.83;3.13;;;;;;;;;;5090338;28;20467;-67
2022/08/29 07:07:54;;;;;;;6.80;2.30;;;;;;;;;;5090756;28;20028;-68
2022/08/29 07:10:19;;;;;;;12.38;3.30;;;;;;;;;;5091039;28;20460;-68
2022/08/29 07:12:45;;;;;;;7.18;2.25;;;;;;;;;;5091017;28;20020;-68
2022/08/29 07:15:10;;;;;;;7.53;2.70;;;;;;;;;;5090700;28;20026;-68
2022/08/29 07:17:35;;;;;;;12.57;3.07;;;;;;;;;;5090822;28;20652;-67
2022/08/29 07:20:01;;;;;;;9.90;3.58;;;;;;;;;;5090953;28;20024;-68
2022/08/29 07:22:26;;;;;;;7.82;2.63;;;;;;;;;;5090997;28;20024;-68
2022/08/29 07:24:52;;;;;;;33.13;5.90;;;;;;;;;;5090627;28;20039;-70
2022/08/29 07:27:17;;;;;;;12.75;3.13;;;;;;;;;;5090678;28;20754;-70
2022/08/29 07:29:42;;;;;;;6.70;2.97;;;;;;;;;;5090583;28;20038;-70
2022/08/29 07:32:08;;;;;;;7.63;2.77;;;;;;;;;;5090651;28;20019;-70
2022/08/29 07:34:33;;;;;;;17.30;3.30;;;;;;;;;;5090395;28;20093;-70
2022/08/29 07:36:58;;;;;;;8.35;3.42;;;;;;;;;;5090431;28;20250;-70
2022/08/29 07:39:24;;;;;;;8.30;3.10;;;;;;;;;;5090379;28;20493;-70
2022/08/29 07:41:49;;;;;;;9.35;2.65;;;;;;;;;;5090490;28;20043;-70
2022/08/29 07:44:15;;;;;;;5.90;2.40;;;;;;;;;;5090492;28;20043;-70
2022/08/29 07:46:40;;;;;;;8.60;2.50;;;;;;;;;;5089687;28;20539;-70
2022/08/29 07:49:06;;;;;;;10.32;2.35;;;;;;;;;;5090635;28;20024;-70
2022/08/29 07:51:31;;;;;;;9.52;2.55;;;;;;;;;;5090341;28;20024;-70
2022/08/29 07:53:56;;;;;;;6.77;2.87;;;;;;;;;;5090378;28;20129;-70
2022/08/29 07:56:29;;;;;;;9.98;2.95;;;;;;;;;;5089907;28;20768;-71
2022/08/29 07:58:55;;;;;;;10.90;2.92;;;;;;;;;;5090380;28;20020;-71
2022/08/29 08:01:20;;;;;;;6.78;2.60;;;;;;;;;;5090408;28;20060;-71
2022/08/29 08:03:45;;;;;;;9.75;2.75;;;;;;;;;;5090020;28;20024;-71
2022/08/29 08:06:11;;;;;;;7.67;2.50;;;;;;;;;;5090174;28;20016;-71
2022/08/29 08:08:37;;;;;;;6.97;2.65;;;;;;;;;;5090100;28;20258;-71
2022/08/29 08:11:04;;;;;;;7.68;3.08;;;;;;;;;;5090380;28;20430;-71
2022/08/29 08:13:29;;;;;;;12.02;2.65;;;;;;;;;;5090211;28;20103;-71
2022/08/29 08:15:54;;;;;;;9.67;2.90;;;;;;;;;;5089743;28;20111;-71
2022/08/29 08:18:20;;;;;;;5.45;2.15;;;;;;;;;;5089589;28;20103;-71
2022/08/29 08:20:47;;;;;;;8.70;2.85;;;;;;;;;;5089888;28;20496;-71
2022/08/29 08:23:12;;;;;;;6.05;2.20;;;;;;;;;;5090091;28;20046;-71
2022/08/29 08:25:37;;;;;;;10.77;2.47;;;;;;;;;;5090769;28;20464;-70
2022/08/29 08:28:02;;;;;;;5.03;1.73;;;;;;;;;;5093817;28;20017;-71
2022/08/29 08:30:28;;;;;;;6.77;2.33;;;;;;;;;;5093868;28;20035;-70
2022/08/29 08:32:53;;;;;;;6.77;2.07;;;;;;;;;;5094188;28;20091;-70
2022/08/29 08:35:19;;;;;;;9.83;2.23;;;;;;;;;;5093963;28;20099;-71
2022/08/29 08:37:44;;;;;;;3.85;1.92;;;;;;;;;;5093929;28;20066;-71
2022/08/29 08:40:17;;;;;;;6.05;2.58;;;;;;;;;;5093642;28;20028;-71
2022/08/29 08:42:44;;;;;;;4.30;1.85;;;;;;;;;;5093876;28;20422;-71
2022/08/29 08:45:10;;;;;;;10.75;2.45;;;;;;;;;;5093642;28;20027;-71
2022/08/29 08:47:39;;;;;;;4.75;2.17;;;;;;;;;;5093346;28;20072;-70
2022/08/29 08:50:15;;;;;;;10.10;1.90;;;;;;;;;;5094078;28;20087;-71
2022/08/29 08:52:44;;;;;;;5.72;2.22;;;;;;;;;;5093232;28;20035;-70
2022/08/29 08:55:24;;;;;;;9.82;2.13;;;;;;;;;;5093857;28;20023;-70
2022/08/29 08:58:09;;;;;;;6.25;1.60;;;;;;;;;;5093674;28;20024;-70
2022/08/29 09:00:41;;;;;;;7.07;1.73;;;;;;;;;;5093606;28;20020;-71
2022/08/29 09:03:17;;;;;;;3.85;1.70;;;;;;;;;;5093492;28;20020;-69
2022/08/29 09:05:55;;;;;;;7.10;2.28;;;;;;;;;;5092702;28;20020;-71
2022/08/29 09:08:29;;;;;;;5.18;1.85;;;;;;;;;;5093111;28;20574;-70
2022/08/29 09:10:58;;;;;;;6.63;1.70;;;;;;;;;;5093119;28;20456;-68
2022/08/29 09:13:28;;;;;;;4.22;1.92;;;;;;;;;;5092983;28;20020;-69
2022/08/29 09:15:55;;;;;;;6.40;2.08;;;;;;;;;;5092897;28;20012;-68
2022/08/29 09:18:27;;;;;;;14.18;2.22;;;;;;;;;;5093235;28;20350;-71
2022/08/29 09:20:53;;;;;;;14.75;2.67;;;;;;;;;;5093585;28;20085;-68
2022/08/29 09:23:48;;;;;;;5.30;1.45;;;;;;;;;;5092744;28;20020;-70
2022/08/29 09:26:18;;;;;;;9.90;2.40;;;;;;;;;;5075095;28;20031;-68
2022/08/29 09:28:43;;;;;;;7.28;1.58;;;;;;;;;;5092778;28;20032;-68
2022/08/29 09:31:12;;;;;;;6.82;1.60;;;;;;;;;;5092890;28;20366;-68
2022/08/29 09:33:57;;;;;;;6.07;1.80;;;;;;;;;;5092587;28;20024;-71
2022/08/29 09:36:37;;;;;;;3.35;1.40;;;;;;;;;;5092076;28;20258;-68
2022/08/29 09:39:09;;;;;;;6.03;1.92;;;;;;;;;;5092448;28;20051;-68
2022/08/29 09:41:34;;;;;;;8.13;2.22;;;;;;;;;;5093008;28;20043;-72
2022/08/29 09:43:59;;;;;;;4.33;1.70;;;;;;;;;;5092621;28;20477;-68
2022/08/29 09:46:25;;;;;;;4.10;1.73;;;;;;;;;;5092235;28;20089;-69
2022/08/29 09:48:50;;;;;;;4.40;1.55;;;;;;;;;;5092457;28;20444;-70
2022/08/29 09:51:24;;;;;;;4.20;1.60;;;;;;;;;;5092374;28;20091;-68
2022/08/29 09:53:51;;;;;;;3.88;1.63;;;;;;;;;;5092170;28;20264;-68
2022/08/29 09:56:21;;;;;;;7.45;1.85;;;;;;;;;;5091997;28;20020;-70
2022/08/29 09:58:56;;;;;;;7.82;1.88;;;;;;;;;;5092428;28;20028;-69
2022/08/29 10:01:21;;;;;;;4.63;2.08;;;;;;;;;;5092217;28;20031;-70
2022/08/29 10:03:55;;;;;;;6.70;1.77;;;;;;;;;;5092110;28;20024;-69
2022/08/29 10:06:22;;;;;;;3.88;1.63;;;;;;;;;;5091890;28;20023;-68
2022/08/29 10:08:54;;;;;;;6.80;1.52;;;;;;;;;;5091823;28;20590;-70
2022/08/29 10:11:23;;;;;;;6.03;1.88;;;;;;;;;;5092121;28;20020;-68
2022/08/29 10:13:51;;;;;;;8.05;1.73;;;;;;;;;;5091867;28;20012;-68
2022/08/29 10:16:22;;;;;;;8.20;2.25;;;;;;;;;;5091747;28;20023;-68
2022/08/29 10:18:53;;;;;;;6.82;1.88;;;;;;;;;;5091900;28;20482;-69
2022/08/29 10:21:37;;;;;;;4.78;1.90;;;;;;;;;;5091675;28;20488;-68
2022/08/29 10:24:21;;;;;;;9.50;2.83;;;;;;;;;;5091989;28;20027;-68
2022/08/29 10:27:00;;;;;;;9.25;1.75;;;;;;;;;;5091203;28;20052;-69
2022/08/29 10:29:47;;;;;;;17.10;2.30;;;;;;;;;;5092242;28;20016;-69
2022/08/29 10:32:18;;;;;;;11.02;2.10;;;;;;;;;;5091820;28;20098;-69
2022/08/29 10:34:43;;;;;;;7.60;2.30;;;;;;;;;;5091360;28;20012;-68
2022/08/29 10:37:12;;;;;;;8.55;1.88;;;;;;;;;;5091561;28;20099;-69
2022/08/29 10:39:44;;;;;;;9.60;1.92;;;;;;;;;;5091122;28;20036;-70
2022/08/29 10:42:18;;;;;;;8.68;1.80;;;;;;;;;;5091523;28;20380;-69
2022/08/29 10:45:02;;;;;;;8.27;2.25;;;;;;;;;;5091252;28;20024;-68
2022/08/29 10:47:36;;;;;;;3.88;2.00;;;;;;;;;;5091385;28;20024;-69
2022/08/29 10:50:04;;;;;;;9.93;2.25;;;;;;;;;;5091074;28;20091;-71
2022/08/29 10:52:49;;;;;;;4.05;1.70;;;;;;;;;;5090466;28;20023;-68
2022/08/29 10:55:31;;;;;;;7.68;1.40;;;;;;;;;;5091147;28;20024;-69
2022/08/29 10:58:02;;;;;;;4.40;2.00;;;;;;;;;;5091076;28;20032;-68
2022/08/29 11:00:34;;;;;;;5.40;1.80;;;;;;;;;;5091397;28;20103;-68
2022/08/29 11:03:34;;;;;;;4.55;1.77;;;;;;;;;;5091207;28;20012;-68
2022/08/29 11:06:04;;;;;;;3.25;1.35;;;;;;;;;;5047139;28;20115;-68
2022/08/29 11:08:33;;;;;;;4.00;1.67;;;;;;;;;;5091055;28;20411;-68
2022/08/29 11:10:59;;;;;;;14.02;2.30;;;;;;;;;;5090821;28;20016;-71
2022/08/29 11:13:24;;;;;;;5.38;1.88;;;;;;;;;;5091251;28;20465;-68
2022/08/29 11:15:59;;;;;;;10.40;2.30;;;;;;;;;;5090538;28;20020;-71
2022/08/29 11:18:33;;;;;;;6.03;2.67;;;;;;;;;;5072762;28;20388;-68
2022/08/29 11:21:02;;;;;;;4.70;1.45;;;;;;;;;;5090973;28;20019;-68
2022/08/29 11:23:32;;;;;;;4.00;1.80;;;;;;;;;;5090616;28;20045;-68
2022/08/29 11:26:00;;;;;;;6.35;1.55;;;;;;;;;;5090515;28;20028;-71
2022/08/29 11:28:35;;;;;;;3.30;1.80;;;;;;;;;;5090674;28;20107;-68
2022/08/29 11:31:07;;;;;;;4.53;1.88;;;;;;;;;;5090731;28;20016;-69
2022/08/29 11:33:40;;;;;;;2.95;1.67;;;;;;;;;;5090385;28;20016;-68
2022/08/29 11:36:24;;;;;;;10.68;2.15;;;;;;;;;;5090029;28;20021;-68
2022/08/29 11:38:50;;;;;;;8.43;1.90;;;;;;;;;;5090561;28;20023;-71
2022/08/29 11:41:15;;;;;;;8.98;1.60;;;;;;;;;;5090478;28;20020;-70
2022/08/29 11:43:42;;;;;;;4.22;1.80;;;;;;;;;;5090437;28;20486;-69
2022/08/29 11:46:10;;;;;;;3.47;1.55;;;;;;;;;;5090006;28;20533;-69
2022/08/29 11:48:37;;;;;;;3.88;1.75;;;;;;;;;;5090069;28;20034;-69
2022/08/29 11:51:21;;;;;;;8.82;2.55;;;;;;;;;;5090792;28;20012;-71
2022/08/29 11:53:47;;;;;;;11.80;2.45;;;;;;;;;;5090128;28;20031;-69
2022/08/29 11:56:12;;;;;;;3.53;1.70;;;;;;;;;;5090132;28;20016;-70
2022/08/29 11:58:39;;;;;;;5.43;2.15;;;;;;;;;;5090457;28;20026;-68
2022/08/29 12:01:05;;;;;;;5.68;2.38;;;;;;;;;;5074262;28;20380;-68
2022/08/29 12:03:33;;;;;;;5.50;1.92;;;;;;;;;;5094777;28;20107;-69
2022/08/29 12:06:01;;;;;;;4.22;1.55;;;;;;;;;;5094107;28;20277;-68
2022/08/29 12:08:35;;;;;;;5.25;1.92;;;;;;;;;;5094459;28;20103;-68
2022/08/29 12:11:00;;;;;;;3.95;1.70;;;;;;;;;;5094328;28;20066;-69
2022/08/29 12:13:40;;;;;;;4.18;2.05;;;;;;;;;;5094270;28;20380;-68
2022/08/29 12:16:08;;;;;;;5.60;2.05;;;;;;;;;;5093896;28;20008;-71
2022/08/29 12:18:33;;;;;;;4.95;1.45;;;;;;;;;;5094377;28;20299;-69
2022/08/29 12:21:01;;;;;;;7.90;2.15;;;;;;;;;;5094041;28;20119;-69
2022/08/29 12:23:31;;;;;;;3.55;1.67;;;;;;;;;;5094152;28;20472;-68
2022/08/29 12:25:59;;;;;;;6.85;2.20;;;;;;;;;;5093490;28;20081;-68
2022/08/29 12:28:32;;;;;;;4.97;1.80;;;;;;;;;;5093985;28;20024;-68
2022/08/29 12:30:57;;;;;;;5.45;1.70;;;;;;;;;;5093498;28;20062;-70
2022/08/29 12:33:35;;;;;;;4.83;2.00;;;;;;;;;;5093665;28;20024;-68
2022/08/29 12:36:19;;;;;;;5.95;2.10;;;;;;;;;;5093629;28;20366;-70
2022/08/29 12:39:07;;;;;;;8.25;2.20;;;;;;;;;;5093563;28;20024;-69
2022/08/29 12:41:51;;;;;;;6.55;2.25;;;;;;;;;;5093509;28;20103;-68
2022/08/29 12:44:20;;;;;;;5.55;1.55;;;;;;;;;;5093752;28;20012;-71
2022/08/29 12:46:49;;;;;;;7.50;1.85;;;;;;;;;;5093341;28;20023;-68
2022/08/29 12:49:14;;;;;;;3.38;1.65;;;;;;;;;;5094007;28;20303;-68
2022/08/29 12:51:40;;;;;;;7.28;2.03;;;;;;;;;;5093616;28;20069;-67
2022/08/29 12:54:06;;;;;;;10.80;2.58;;;;;;;;;;5075297;28;20028;-67
2022/08/29 12:56:32;;;;;;;7.75;2.00;;;;;;;;;;5093135;28;20095;-67
2022/08/29 12:58:58;;;;;;;8.45;1.92;;;;;;;;;;5093282;28;20169;-67
2022/08/29 13:01:24;;;;;;;4.65;2.28;;;;;;;;;;5093472;28;20031;-67
2022/08/29 13:04:01;;;;;;;12.05;1.98;;;;;;;;;;5093150;28;20055;-67
2022/08/29 13:06:26;;;;;;;9.80;2.70;;;;;;;;;;5093069;28;20497;-67
2022/08/29 13:08:51;;;;;;;12.10;2.42;;;;;;;;;;5093417;28;20095;-67
2022/08/29 13:11:22;;;;;;;8.80;2.53;;;;;;;;;;5092869;28;20149;-67
2022/08/29 13:13:48;;;;;;;8.05;2.13;;;;;;;;;;5092904;28;20773;-67
2022/08/29 13:16:27;;;;;;;8.10;2.25;;;;;;;;;;5092445;28;20012;-67
2022/08/29 13:18:53;;;;;;;5.30;1.70;;;;;;;;;;5092955;28;20024;-69
2022/08/29 13:21:29;;;;;;;6.10;2.05;;;;;;;;;;5093105;28;20028;-67
2022/08/29 13:23:57;;;;;;;7.15;2.78;;;;;;;;;;5092908;28;20418;-66
2022/08/29 13:26:23;;;;;;;9.15;2.60;;;;;;;;;;5092591;28;20016;-67
2022/08/29 13:28:55;;;;;;;6.13;2.60;;;;;;;;;;5092605;28;20491;-66
2022/08/29 13:31:23;;;;;;;4.88;2.00;;;;;;;;;;5092972;28;20016;-67
2022/08/29 13:33:48;;;;;;;6.47;2.10;;;;;;;;;;5093034;28;20012;-67
2022/08/29 13:36:26;;;;;;;6.20;2.13;;;;;;;;;;5092425;28;20415;-67
2022/08/29 13:39:09;;;;;;;6.22;2.10;;;;;;;;;;5092545;28;20028;-67
2022/08/29 13:41:34;;;;;;;7.30;2.42;;;;;;;;;;5092253;28;20050;-68
2022/08/29 13:44:00;;;;;;;8.83;2.10;;;;;;;;;;5092527;28;20063;-67
2022/08/29 13:46:26;;;;;;;4.70;2.20;;;;;;;;;;5091998;28;20258;-67
2022/08/29 13:49:01;;;;;;;7.70;2.45;;;;;;;;;;5092159;28;20020;-66
2022/08/29 13:51:27;;;;;;;12.70;2.88;;;;;;;;;;5092373;28;20077;-67
2022/08/29 13:53:53;;;;;;;5.18;2.40;;;;;;;;;;5091859;28;20028;-69
2022/08/29 13:56:24;;;;;;;8.75;2.47;;;;;;;;;;5092160;28;20023;-67
2022/08/29 13:58:50;;;;;;;8.98;2.45;;;;;;;;;;5092078;28;20016;-66
2022/08/29 14:01:21;;;;;;;10.25;2.72;;;;;;;;;;5092232;28;20012;-67
2022/08/29 14:03:46;;;;;;;16.25;3.10;;;;;;;;;;5092183;28;20022;-66
2022/08/29 14:06:12;;;;;;;7.93;2.10;;;;;;;;;;5091737;28;20106;-67
2022/08/29 14:08:37;;;;;;;9.50;2.20;;;;;;;;;;5092077;28;20047;-68
2022/08/29 14:11:02;;;;;;;7.10;2.85;;;;;;;;;;5092061;28;20051;-66
2022/08/29 14:13:27;;;;;;;9.13;2.53;;;;;;;;;;5092002;28;20008;-67
2022/08/29 14:15:53;;;;;;;9.68;2.80;;;;;;;;;;5091803;28;20388;-66
2022/08/29 14:18:18;;;;;;;6.77;1.97;;;;;;;;;;5091909;28;20016;-67
2022/08/29 14:20:43;;;;;;;9.10;2.50;;;;;;;;;;5091672;28;20619;-67
2022/08/29 14:23:08;;;;;;;7.07;2.60;;;;;;;;;;5091073;28;20090;-67
2022/08/29 14:25:33;;;;;;;6.90;2.60;;;;;;;;;;5091414;28;20065;-68
2022/08/29 14:27:59;;;;;;;11.17;2.97;;;;;;;;;;5091627;28;20270;-66
2022/08/29 14:30:24;;;;;;;12.75;2.55;;;;;;;;;;5091306;28;20254;-68
2022/08/29 14:32:50;;;;;;;7.28;2.03;;;;;;;;;;5090917;28;20019;-66
2022/08/29 14:35:15;;;;;;;10.32;2.60;;;;;;;;;;5091599;28;20079;-67
2022/08/29 14:37:40;;;;;;;5.45;2.42;;;;;;;;;;5091198;28;20035;-67
2022/08/29 14:40:07;;;;;;;11.93;2.85;;;;;;;;;;5091596;28;20031;-67
2022/08/29 14:42:33;;;;;;;5.68;2.33;;;;;;;;;;5091701;28;20016;-67
2022/08/29 14:44:58;;;;;;;7.20;2.50;;;;;;;;;;5091110;28;20118;-67
2022/08/29 14:47:23;;;;;;;6.55;2.40;;;;;;;;;;5091194;28;20023;-67